Friday, July 20, 2018, 4:52 AM EDT
Back to Local

KDCA, Washington National Airport

Location: Arlington, VA, United States Lat: 38.85
Local Time: 4:52 AM EDT ( 8:52 GMT) Lon: -77.033
Time Zone: US/Eastern Elev: 16 ft

Show me the last for .
Show Coded

Time T Td Feel RH Dir Speed Gust Alt SLP Vis Weather Sky Remarks
2018-07-20 03:52 72 64 76 76 - Calm - 30.11 30.10 10 SCT250 None
2018-07-20 02:52 73 63 77 70 170° 6 - 30.10 30.10 10 BKN250 None
2018-07-20 01:52 74 62 77 66 150° 6 - 30.10 30.10 10 BKN250 6-hr Min Temp (2am): 73.9°F
6-hr Max Temp (2am): 82.0°F
2018-07-20 00:52 75 60 78 59 200° 6 - 30.11 30.10 10 BKN250 24-hr Min Temp (1am): 71.1°F
24-hr Max Temp (1am): 88.0°F
2018-07-19 23:52 76 59 78 55 220° 6 - 30.10 30.10 10 OVC250 None
2018-07-19 22:52 77 57 79 50 180° 5 - 30.09 30.09 10 BKN250 None
2018-07-19 21:52 79 57 80 47 180° 3 - 30.08 30.08 10 BKN250 None
2018-07-19 20:52 80 58 81 46 120° 9 - 30.07 30.06 10 OVC250 None
2018-07-19 19:52 82 59 83 45 150° 8 - 30.05 30.05 10 OVC250 6-hr Min Temp (8pm): 82.0°F
6-hr Max Temp (8pm): 88.0°F
2018-07-19 18:52 84 58 84 41 150° 14 - 30.05 30.05 10 FEW065 BKN250 None
2018-07-19 17:52 86 56 - 36 180° 8 - 30.05 30.05 10 FEW065 BKN250 None
2018-07-19 16:52 87 53 - 31 170° 7 - 30.06 30.06 10 SCT065 BKN250 None
2018-07-19 15:52 87 54 - 32 170° 6 - 30.07 30.06 10 FEW065 BKN250 None
2018-07-19 14:52 86 54 - 33 150° 5 - 30.08 30.07 10 SCT065 BKN250 None
2018-07-19 13:52 85 55 - 36 140° 5 - 30.09 30.09 10 SCT060 BKN250 6-hr Min Temp (2pm): 73.9°F
6-hr Max Temp (2pm): 87.1°F
2018-07-19 12:52 84 56 - 38 180° 5 - 30.10 30.10 10 SCT050 BKN250 None
2018-07-19 11:52 84 56 - 38 10° 5 - 30.11 30.11 10 FEW080 SCT250 None
2018-07-19 10:52 82 55 - 39 50° 6 - 30.11 30.11 10 FEW045 SCT250 None
2018-07-19 09:52 79 55 79 43 50° 8 - 30.11 30.11 10 FEW045 FEW090 FEW250 None
2018-07-19 08:52 77 56 78 48 50° 10 - 30.11 30.11 10 FEW045 FEW080 None
2018-07-19 07:52 75 56 77 51 10° 8 - 30.09 30.09 10 FEW065 FEW080 6-hr Min Temp (8am): 71.1°F
6-hr Max Temp (8am): 75.0°F
2018-07-19 06:52 73 58 77 59 40° 8 - 30.07 30.07 10 FEW065 FEW080 None
2018-07-19 05:52 73 58 77 59 20° 9 - 30.06 30.06 10 FEW065 BKN080 None

Support USWX by starting your Amazon purchase here.